Aérodrome :
LOGIN :

S'inscrire | Disclaimer

   EN    FR    IT 

 










Légende :    VFR   VFR Marginal   IFR   IFR Intensif   IFR Très Intensif
Visi : 
Plafond : 
>= 8 km
>= 3000ft
5 à 8 km
1000 à 3000 ft
1500m à 5 km
500 à 1000 ft
800 à 1500m
200 à 500 ft
< 800m
< 200 ft
Symboles :   Orages  Brouillard  Fortes neiges  Fortes précipitations  Vent > 20 kt
SIGMETs :   Divers  Orages  Givrage  Turbulence  Onde Orograph.  Cendres Volcan.







- Altitude de l'aérodrome : 538 ft
- Code IATA : TNF
- Voir les cartes d'approche


LFPN - Toussus Le Noble

DERNIER METAR :
  • 222130Z AUTO 06004KT 030V100 9999 ///TCU 07/06 Q1008

METARs EXPIRÉS :
  • 222100Z AUTO 07003KT CAVOK 07/06 Q1008 NOSIG
  • 222030Z AUTO 00000KT CAVOK 07/06 Q1008 NOSIG
  • 222000Z AUTO 04003KT 9999 BKN049 BKN056 OVC078 07/06 Q1008 TEMPO 2500 SHRA SCT025CB BKN030
  • 221930Z AUTO VRB03KT 9999 SCT047 OVC056 07/06 Q1008 TEMPO 2500 SHRA SCT025CB BKN030
  • 221900Z AUTO 04003KT 9999 SCT043 OVC054 07/06 Q1008 TEMPO 2500 SHRA SCT025CB BKN030

TAF TAF LFPN
Valide du 22 à 18h jusqu'au 23 à 03h UTC


221700Z 2218/2303 20006KT 9999 BKN045
TEMPO 2218/2221 4000 SHRA SCT025TCU BKN030
PROB30
TEMPO 2218/2221 2500 SHRA SCT025CB BKN030
ATIS : +33 1 39 56 54 70
Pas de NOTAMs connus pour ce terrain.



MET'MAP, la Météo Aéronautique d'un coup d'oeil ! - Copyright ORBIFLY Décembre 2007 - Disclaimer

ORBIFLY MET'MAP TEAM :

Programmation & Développement : Alexandra Zaïnal
Conception & Développement : Baudouin d'Aumeries
Co-Programmation & Développement : Marc-Olivier Méhu
Soutien technique & logistique : Manuel Goepfert

Contact : metmap@orbifly.com




SOURCES & CREDITS :

   NOAA